createdAt,value
2023-03-29T00:01:46.506Z,57.0
2023-03-29T00:04:17.412Z,57.0
2023-03-29T00:06:48.171Z,57.0
2023-03-29T00:11:58.747Z,57.0
2023-03-29T00:14:29.294Z,57.0
2023-03-29T00:17:00.020Z,57.0
2023-03-29T00:19:30.692Z,58.0
2023-03-29T00:22:01.222Z,58.0
2023-03-29T00:24:41.751Z,57.0
2023-03-29T00:27:12.309Z,57.0
2023-03-29T00:29:42.855Z,57.0
2023-03-29T00:32:13.410Z,57.0
2023-03-29T00:34:43.943Z,57.0
2023-03-29T00:37:14.484Z,57.0
2023-03-29T00:39:55.026Z,57.0
2023-03-29T00:42:25.597Z,57.0
2023-03-29T00:44:56.158Z,56.0
2023-03-29T00:47:26.726Z,55.0
2023-03-29T00:52:37.443Z,55.0
2023-03-29T00:55:18.027Z,55.0
2023-03-29T00:57:48.609Z,55.0
2023-03-29T01:00:19.170Z,55.0
2023-03-29T01:02:50.127Z,55.0
2023-03-29T01:05:20.850Z,54.0
2023-03-29T01:08:01.396Z,52.0
2023-03-29T01:10:31.950Z,52.0
2023-03-29T01:13:02.510Z,51.0
2023-03-29T01:15:33.077Z,51.0
2023-03-29T01:18:03.734Z,50.0
2023-03-29T01:20:34.347Z,50.0
2023-03-29T01:23:14.882Z,49.0
2023-03-29T01:25:45.475Z,48.0
2023-03-29T01:28:16.079Z,47.0
2023-03-29T01:33:16.685Z,46.0
2023-03-29T01:35:47.293Z,46.0
2023-03-29T01:38:27.977Z,46.0
2023-03-29T01:40:58.538Z,46.0
2023-03-29T01:43:29.151Z,46.0
2023-03-29T01:45:59.830Z,45.0
2023-03-29T01:48:30.563Z,46.0
2023-03-29T01:51:01.313Z,46.0
2023-03-29T01:53:42.084Z,46.0
2023-03-29T01:56:12.620Z,45.0
2023-03-29T01:58:43.330Z,45.0
2023-03-29T02:01:14.466Z,45.0
2023-03-29T02:03:45.264Z,44.0
2023-03-29T02:06:15.830Z,43.0
2023-03-29T02:08:56.404Z,42.0
2023-03-29T02:13:56.968Z,42.0
2023-03-29T02:16:27.629Z,41.0
2023-03-29T02:18:58.177Z,40.0
2023-03-29T02:21:28.723Z,39.0
2023-03-29T02:26:39.310Z,39.0
2023-03-29T02:29:09.848Z,38.0
2023-03-29T02:31:40.567Z,37.0
2023-03-29T02:34:11.134Z,36.0
2023-03-29T02:36:51.686Z,35.0
2023-03-29T02:39:22.207Z,34.0
2023-03-29T02:41:52.788Z,32.0
2023-03-29T02:44:23.319Z,30.0
2023-03-29T02:46:54.144Z,29.0
2023-03-29T02:49:24.694Z,28.0
2023-03-29T02:54:35.329Z,26.0
2023-03-29T02:57:05.913Z,25.0
2023-03-29T02:59:36.702Z,24.0
2023-03-29T03:02:17.311Z,23.0
2023-03-29T03:04:47.956Z,22.0
2023-03-29T03:07:28.495Z,21.0
2023-03-29T03:09:59.102Z,20.0
2023-03-29T03:12:29.678Z,20.0
2023-03-29T03:15:00.201Z,19.0
2023-03-29T03:17:30.800Z,18.0
2023-03-29T03:20:01.500Z,18.0
2023-03-29T03:22:42.068Z,17.0
2023-03-29T03:25:12.599Z,17.0
2023-03-29T03:27:43.144Z,16.0
2023-03-29T03:30:13.696Z,16.0
2023-03-29T03:35:14.259Z,15.0
2023-03-29T03:37:54.847Z,15.0
2023-03-29T03:40:27.221Z,15.0
2023-03-29T03:42:58.848Z,14.0
2023-03-29T03:45:29.432Z,14.0
2023-03-29T03:48:00.237Z,14.0
2023-03-29T03:50:40.946Z,14.0
2023-03-29T03:53:11.478Z,14.0
2023-03-29T03:55:42.022Z,13.0
2023-03-29T03:58:12.549Z,13.0
2023-03-29T04:00:43.088Z,13.0
2023-03-29T04:03:13.848Z,13.0
2023-03-29T04:05:54.784Z,13.0
2023-03-29T04:08:25.323Z,13.0
2023-03-29T04:10:55.880Z,13.0
2023-03-29T04:15:57.162Z,12.0
2023-03-29T04:18:29.486Z,12.0
2023-03-29T04:21:10.453Z,12.0
2023-03-29T04:23:41.798Z,12.0
2023-03-29T04:26:12.332Z,12.0
2023-03-29T04:28:42.862Z,12.0
2023-03-29T04:31:13.801Z,12.0
2023-03-29T04:33:44.404Z,12.0
2023-03-29T04:36:24.988Z,12.0
2023-03-29T04:38:58.048Z,12.0
2023-03-29T04:41:18.614Z,12.0
2023-03-29T04:43:50.492Z,12.0
2023-03-29T04:46:21.149Z,12.0
2023-03-29T04:49:01.798Z,12.0
2023-03-29T04:51:32.386Z,11.0
2023-03-29T04:56:32.939Z,11.0
2023-03-29T04:59:03.501Z,11.0
2023-03-29T05:01:34.135Z,11.0
2023-03-29T05:04:24.804Z,11.0
2023-03-29T05:06:55.466Z,11.0
2023-03-29T05:09:25.995Z,11.0
2023-03-29T05:11:56.533Z,11.0
2023-03-29T05:14:27.061Z,11.0
2023-03-29T05:16:57.604Z,11.0
2023-03-29T05:19:38.136Z,10.0
2023-03-29T05:22:08.671Z,10.0
2023-03-29T05:24:39.196Z,10.0
2023-03-29T05:27:09.732Z,10.0
2023-03-29T05:29:40.273Z,10.0
2023-03-29T05:32:10.950Z,10.0
2023-03-29T05:37:21.550Z,10.0
2023-03-29T05:39:52.140Z,10.0
2023-03-29T05:42:16.582Z,10.0
2023-03-29T05:44:57.136Z,10.0
2023-03-29T05:47:27.691Z,10.0
2023-03-29T05:50:08.438Z,10.0
2023-03-29T05:52:38.998Z,9.0
2023-03-29T05:55:10.476Z,9.0
2023-03-29T05:57:31.177Z,9.0
2023-03-29T06:00:11.741Z,9.0
2023-03-29T06:02:52.633Z,9.0
2023-03-29T06:05:18.140Z,9.0
2023-03-29T06:07:48.685Z,9.0
2023-03-29T06:10:19.230Z,9.0
2023-03-29T06:12:49.758Z,9.0
2023-03-29T06:18:00.498Z,9.0
2023-03-29T06:20:31.145Z,9.0
2023-03-29T06:23:01.705Z,9.0
2023-03-29T06:25:32.275Z,9.0
2023-03-29T06:28:02.914Z,9.0
2023-03-29T06:30:33.488Z,9.0
2023-03-29T06:33:14.308Z,9.0
2023-03-29T06:35:44.937Z,9.0
2023-03-29T06:38:15.516Z,9.0
2023-03-29T06:43:16.074Z,9.0
2023-03-29T06:45:56.632Z,9.0
2023-03-29T06:48:27.273Z,9.0
2023-03-29T06:50:57.807Z,9.0
2023-03-29T06:53:28.370Z,9.0
2023-03-29T06:58:38.961Z,9.0
2023-03-29T07:01:19.540Z,9.0
2023-03-29T07:03:50.205Z,9.0
2023-03-29T07:06:20.816Z,9.0
2023-03-29T07:08:51.589Z,9.0
2023-03-29T07:11:22.310Z,9.0
2023-03-29T07:13:53.241Z,9.0
2023-03-29T07:16:33.902Z,9.0
2023-03-29T07:19:04.579Z,9.0
2023-03-29T07:21:37.370Z,9.0
2023-03-29T07:23:58.591Z,9.0
2023-03-29T07:26:44.012Z,10.0
2023-03-29T07:29:04.756Z,9.0
2023-03-29T07:31:45.308Z,10.0
2023-03-29T07:34:15.849Z,10.0
2023-03-29T07:39:16.396Z,10.0
2023-03-29T07:44:16.964Z,10.0
2023-03-29T07:47:02.521Z,10.0
2023-03-29T07:49:33.068Z,11.0
2023-03-29T07:52:03.644Z,11.0
2023-03-29T07:54:34.236Z,11.0
2023-03-29T07:57:04.843Z,11.0
2023-03-29T07:59:45.453Z,11.0
2023-03-29T08:02:16.058Z,12.0
2023-03-29T08:04:46.699Z,12.0
2023-03-29T08:07:18.931Z,13.0
2023-03-29T08:09:49.536Z,13.0
2023-03-29T08:12:20.097Z,13.0
2023-03-29T08:15:00.680Z,14.0
2023-03-29T08:20:02.475Z,15.0
2023-03-29T08:22:33.007Z,16.0
2023-03-29T08:25:03.554Z,16.0
2023-03-29T08:27:34.110Z,16.0
2023-03-29T08:30:14.826Z,18.0
2023-03-29T08:32:46.980Z,19.0
2023-03-29T08:35:09.914Z,19.0
2023-03-29T08:37:40.444Z,19.0
2023-03-29T08:40:10.985Z,20.0
2023-03-29T08:42:41.553Z,20.0
2023-03-29T08:45:22.094Z,21.0
2023-03-29T08:48:02.835Z,22.0
2023-03-29T08:50:33.416Z,22.0
2023-03-29T08:53:04.046Z,22.0
2023-03-29T08:55:34.626Z,22.0
2023-03-29T09:00:45.161Z,23.0
2023-03-29T09:03:15.965Z,23.0
2023-03-29T09:05:46.783Z,24.0
2023-03-29T09:08:17.332Z,24.0
2023-03-29T09:10:47.907Z,24.0
2023-03-29T09:13:28.609Z,25.0
2023-03-29T09:15:59.204Z,24.0
2023-03-29T09:18:29.918Z,24.0
2023-03-29T09:21:00.673Z,25.0
2023-03-29T09:23:31.379Z,25.0
2023-03-29T09:26:04.447Z,25.0
2023-03-29T09:28:45.014Z,24.0
2023-03-29T09:31:15.790Z,24.0
2023-03-29T09:33:46.385Z,24.0
2023-03-29T09:36:17.028Z,23.0
2023-03-29T09:41:17.584Z,23.0
2023-03-29T09:44:03.117Z,22.0
2023-03-29T09:46:28.593Z,22.0
2023-03-29T09:48:59.135Z,23.0
2023-03-29T09:51:29.670Z,23.0
2023-03-29T09:54:00.206Z,23.0
2023-03-29T09:56:30.741Z,23.0
2023-03-29T09:59:11.390Z,25.0
2023-03-29T10:01:42.055Z,25.0
2023-03-29T10:04:12.742Z,24.0
2023-03-29T10:06:43.344Z,25.0
2023-03-29T10:09:13.904Z,28.0
2023-03-29T10:11:54.450Z,30.0
2023-03-29T10:14:25.013Z,32.0
2023-03-29T10:16:55.663Z,32.0
2023-03-29T10:21:56.305Z,36.0
2023-03-29T10:24:26.870Z,35.0
2023-03-29T10:27:07.418Z,36.0
2023-03-29T10:29:37.991Z,37.0
2023-03-29T10:32:08.734Z,39.0
2023-03-29T10:34:39.272Z,38.0
2023-03-29T10:37:09.853Z,38.0
2023-03-29T10:39:40.386Z,40.0
2023-03-29T10:42:20.952Z,41.0
2023-03-29T10:44:51.506Z,44.0
2023-03-29T10:47:22.116Z,43.0
2023-03-29T10:49:54.418Z,46.0
2023-03-29T10:52:25.751Z,44.0
2023-03-29T10:54:56.338Z,45.0
2023-03-29T10:57:37.273Z,47.0
2023-03-29T11:02:38.220Z,49.0
2023-03-29T11:05:09.012Z,49.0
2023-03-29T11:07:39.567Z,50.0
2023-03-29T11:10:20.113Z,50.0
2023-03-29T11:12:50.672Z,49.0
2023-03-29T11:15:21.216Z,50.0
2023-03-29T11:17:51.861Z,50.0
2023-03-29T11:20:22.489Z,51.0
2023-03-29T11:22:53.049Z,50.0
2023-03-29T11:25:33.621Z,51.0
2023-03-29T11:28:04.158Z,50.0
2023-03-29T11:30:34.897Z,51.0
2023-03-29T11:33:05.813Z,52.0
2023-03-29T11:35:36.412Z,51.0
2023-03-29T11:38:07.063Z,49.0
2023-03-29T11:43:17.654Z,52.0
2023-03-29T11:45:48.186Z,52.0
2023-03-29T11:48:18.817Z,51.0
2023-03-29T11:50:49.349Z,51.0
2023-03-29T11:53:19.977Z,50.0
2023-03-29T11:56:00.555Z,50.0
2023-03-29T11:58:31.160Z,50.0
2023-03-29T12:01:01.884Z,51.0
2023-03-29T12:03:32.828Z,51.0
2023-03-29T12:06:06.581Z,51.0
2023-03-29T12:08:37.196Z,51.0
2023-03-29T12:11:17.761Z,51.0
2023-03-29T12:13:48.324Z,52.0
2023-03-29T12:16:19.027Z,51.0
2023-03-29T12:18:49.648Z,51.0
2023-03-29T12:24:00.300Z,51.0
2023-03-29T12:26:30.857Z,53.0
2023-03-29T12:29:01.387Z,52.0
2023-03-29T12:31:32.032Z,51.0
2023-03-29T12:34:02.676Z,53.0
2023-03-29T12:36:33.247Z,53.0
2023-03-29T12:39:13.829Z,53.0
2023-03-29T12:41:44.389Z,53.0
2023-03-29T12:44:14.940Z,53.0
2023-03-29T12:46:45.710Z,53.0
2023-03-29T12:49:16.877Z,54.0
2023-03-29T12:51:48.211Z,54.0
2023-03-29T12:54:28.796Z,54.0
2023-03-29T12:56:59.394Z,54.0
2023-03-29T12:59:29.970Z,54.0
2023-03-29T13:04:40.558Z,54.0
2023-03-29T13:07:11.260Z,54.0
2023-03-29T13:09:51.809Z,55.0
2023-03-29T13:12:22.404Z,56.0
2023-03-29T13:14:44.099Z,55.0
2023-03-29T13:17:28.060Z,55.0
2023-03-29T13:19:48.669Z,56.0
2023-03-29T13:22:19.196Z,55.0
2023-03-29T13:24:59.737Z,55.0
2023-03-29T13:27:30.292Z,55.0
2023-03-29T13:30:00.866Z,56.0
2023-03-29T13:32:31.540Z,56.0
2023-03-29T13:35:02.192Z,55.0
2023-03-29T13:37:42.745Z,55.0
2023-03-29T13:40:13.261Z,55.0
2023-03-29T13:45:13.824Z,55.0
2023-03-29T13:47:49.285Z,55.0
2023-03-29T13:50:16.748Z,55.0
2023-03-29T13:52:57.309Z,56.0
2023-03-29T13:55:28.079Z,55.0
2023-03-29T13:57:59.478Z,56.0
2023-03-29T14:00:30.401Z,56.0
2023-03-29T14:03:01.155Z,56.0
2023-03-29T14:05:31.783Z,55.0
2023-03-29T14:08:12.422Z,55.0
2023-03-29T14:10:42.972Z,55.0
2023-03-29T14:13:13.529Z,55.0
2023-03-29T14:15:44.066Z,56.0
2023-03-29T14:18:14.719Z,55.0
2023-03-29T14:20:45.317Z,55.0
2023-03-29T14:25:55.933Z,55.0
2023-03-29T14:28:26.502Z,55.0
2023-03-29T14:31:07.069Z,55.0
2023-03-29T14:33:37.726Z,55.0
2023-03-29T14:36:18.738Z,55.0
2023-03-29T14:38:39.539Z,55.0
2023-03-29T14:43:50.779Z,55.0
2023-03-29T14:46:21.565Z,55.0
2023-03-29T14:48:52.221Z,55.0
2023-03-29T14:51:32.783Z,56.0
2023-03-29T14:54:03.425Z,55.0
2023-03-29T14:56:34.026Z,56.0
2023-03-29T14:59:04.596Z,55.0
2023-03-29T15:01:35.308Z,55.0
2023-03-29T15:06:46.076Z,56.0
2023-03-29T15:09:17.344Z,55.0
2023-03-29T15:11:48.028Z,55.0
2023-03-29T15:14:18.559Z,55.0
2023-03-29T15:16:49.172Z,56.0
2023-03-29T15:19:19.742Z,55.0
2023-03-29T15:22:02.201Z,55.0
2023-03-29T15:24:32.820Z,55.0
2023-03-29T15:27:03.426Z,55.0
2023-03-29T15:29:34.050Z,55.0
2023-03-29T15:32:04.715Z,54.0
2023-03-29T15:34:45.465Z,54.0
2023-03-29T15:37:16.065Z,55.0
2023-03-29T15:39:46.594Z,55.0
2023-03-29T15:42:17.200Z,55.0
2023-03-29T15:47:17.816Z,54.0
2023-03-29T15:49:58.535Z,54.0
2023-03-29T15:52:29.165Z,55.0
2023-03-29T15:54:59.728Z,55.0
2023-03-29T15:57:30.520Z,54.0
2023-03-29T16:00:01.259Z,54.0
2023-03-29T16:02:32.003Z,55.0
2023-03-29T16:05:12.699Z,55.0
2023-03-29T16:07:43.250Z,55.0
2023-03-29T16:10:13.807Z,54.0
2023-03-29T16:15:14.429Z,55.0
2023-03-29T16:17:45.075Z,55.0
2023-03-29T16:20:25.698Z,55.0
2023-03-29T16:22:56.289Z,55.0
2023-03-29T16:27:57.156Z,55.0
2023-03-29T16:30:27.691Z,55.0
2023-03-29T16:32:58.363Z,55.0
2023-03-29T16:35:39.331Z,55.0
2023-03-29T16:38:09.982Z,55.0
2023-03-29T16:40:40.544Z,55.0
2023-03-29T16:43:11.114Z,55.0
2023-03-29T16:45:41.704Z,55.0
2023-03-29T16:48:22.352Z,55.0
2023-03-29T16:50:53.416Z,55.0
2023-03-29T16:53:24.050Z,54.0
2023-03-29T16:55:54.630Z,54.0
2023-03-29T16:58:25.942Z,54.0
2023-03-29T17:00:58.595Z,54.0
2023-03-29T17:03:39.247Z,54.0
2023-03-29T17:08:39.824Z,54.0
2023-03-29T17:11:10.469Z,53.0
2023-03-29T17:13:41.112Z,53.0
2023-03-29T17:16:12.393Z,53.0
2023-03-29T17:18:53.038Z,52.0
2023-03-29T17:21:23.606Z,51.0
2023-03-29T17:23:54.194Z,51.0
2023-03-29T17:26:24.904Z,50.0
2023-03-29T17:28:55.448Z,50.0
2023-03-29T17:31:26.131Z,49.0
2023-03-29T17:34:06.868Z,49.0
2023-03-29T17:36:37.482Z,48.0
2023-03-29T17:39:08.505Z,48.0
2023-03-29T17:41:41.198Z,48.0
2023-03-29T17:44:11.782Z,47.0
2023-03-29T17:49:22.376Z,47.0
2023-03-29T17:51:52.969Z,45.0
2023-03-29T17:54:23.507Z,45.0
2023-03-29T17:56:54.113Z,45.0
2023-03-29T17:59:24.694Z,45.0
2023-03-29T18:02:05.449Z,45.0
2023-03-29T18:04:36.131Z,45.0
2023-03-29T18:07:06.707Z,44.0
2023-03-29T18:09:38.836Z,44.0
2023-03-29T18:12:09.391Z,43.0
2023-03-29T18:14:39.942Z,43.0
2023-03-29T18:17:20.517Z,43.0
2023-03-29T18:19:51.159Z,42.0
2023-03-29T18:22:21.725Z,42.0
2023-03-29T18:24:52.267Z,42.0
2023-03-29T18:29:52.898Z,42.0
2023-03-29T18:32:33.587Z,41.0
2023-03-29T18:35:04.265Z,41.0
2023-03-29T18:37:34.998Z,41.0
2023-03-29T18:40:05.553Z,39.0
2023-03-29T18:42:36.100Z,38.0
2023-03-29T18:45:06.652Z,36.0
2023-03-29T18:47:47.312Z,35.0
2023-03-29T18:50:18.021Z,33.0
2023-03-29T18:52:48.617Z,32.0
2023-03-29T18:55:19.158Z,29.0
2023-03-29T18:57:49.732Z,26.0
2023-03-29T19:00:30.288Z,26.0
2023-03-29T19:03:01.118Z,26.0
2023-03-29T19:05:32.033Z,26.0
2023-03-29T19:10:32.639Z,26.0
2023-03-29T19:13:03.206Z,25.0
2023-03-29T19:15:53.996Z,24.0
2023-03-29T19:18:15.176Z,24.0
2023-03-29T19:20:45.724Z,23.0
2023-03-29T19:23:16.268Z,23.0
2023-03-29T19:25:56.844Z,22.0
2023-03-29T19:28:27.710Z,22.0
2023-03-29T19:31:08.353Z,23.0
2023-03-29T19:33:39.004Z,23.0
2023-03-29T19:36:09.651Z,23.0
2023-03-29T19:38:40.255Z,24.0
2023-03-29T19:41:10.828Z,25.0
2023-03-29T19:43:41.357Z,25.0
2023-03-29T19:46:22.023Z,26.0
2023-03-29T19:51:22.646Z,25.0
2023-03-29T19:53:53.223Z,25.0
2023-03-29T19:56:23.780Z,25.0
2023-03-29T19:58:54.322Z,25.0
2023-03-29T20:01:34.931Z,25.0
2023-03-29T20:04:05.608Z,25.0
2023-03-29T20:06:36.259Z,25.0
2023-03-29T20:09:06.816Z,25.0
2023-03-29T20:11:37.374Z,25.0
2023-03-29T20:14:17.932Z,25.0
2023-03-29T20:16:48.519Z,25.0
2023-03-29T20:19:19.122Z,25.0
2023-03-29T20:21:49.704Z,24.0
2023-03-29T20:24:20.247Z,24.0
2023-03-29T20:26:50.779Z,23.0
2023-03-29T20:32:01.424Z,22.0
2023-03-29T20:34:32.065Z,21.0
2023-03-29T20:37:02.711Z,21.0
2023-03-29T20:39:35.813Z,20.0
2023-03-29T20:42:06.408Z,20.0
2023-03-29T20:44:46.998Z,19.0
2023-03-29T20:47:17.544Z,18.0
2023-03-29T20:49:48.159Z,17.0
2023-03-29T20:52:18.790Z,16.0
2023-03-29T20:54:49.382Z,16.0
2023-03-29T20:57:20.084Z,16.0
2023-03-29T21:00:01.057Z,14.0
2023-03-29T21:02:31.999Z,14.0
2023-03-29T21:05:02.781Z,13.0
2023-03-29T21:07:33.433Z,13.0
2023-03-29T21:12:34.039Z,12.0
2023-03-29T21:15:14.616Z,12.0
2023-03-29T21:17:45.203Z,12.0
2023-03-29T21:20:15.945Z,12.0
2023-03-29T21:22:46.490Z,12.0
2023-03-29T21:25:17.036Z,12.0
2023-03-29T21:27:57.571Z,12.0
2023-03-29T21:30:30.078Z,12.0
2023-03-29T21:33:02.021Z,12.0
2023-03-29T21:35:32.681Z,12.0
2023-03-29T21:38:03.366Z,11.0
2023-03-29T21:40:33.969Z,11.0
2023-03-29T21:43:14.523Z,11.0
2023-03-29T21:45:45.101Z,11.0
2023-03-29T21:48:15.707Z,12.0
2023-03-29T21:53:16.256Z,12.0
2023-03-29T21:55:46.812Z,12.0
2023-03-29T21:58:27.447Z,12.0
2023-03-29T22:00:58.097Z,12.0
2023-03-29T22:03:28.787Z,11.0
2023-03-29T22:05:59.363Z,11.0
2023-03-29T22:08:30.157Z,11.0
2023-03-29T22:11:00.832Z,11.0
2023-03-29T22:13:41.498Z,11.0
2023-03-29T22:16:12.099Z,11.0
2023-03-29T22:18:42.761Z,12.0
2023-03-29T22:21:13.664Z,12.0
2023-03-29T22:23:44.196Z,12.0
2023-03-29T22:26:24.787Z,12.0
2023-03-29T22:28:55.357Z,12.0
2023-03-29T22:33:55.918Z,13.0
2023-03-29T22:38:56.515Z,13.0
2023-03-29T22:41:37.092Z,13.0
2023-03-29T22:44:07.669Z,13.0
2023-03-29T22:46:38.462Z,13.0
2023-03-29T22:49:09.096Z,13.0
2023-03-29T22:51:49.660Z,13.0
2023-03-29T22:54:20.214Z,13.0
2023-03-29T22:57:00.830Z,14.0
2023-03-29T22:59:31.508Z,14.0
2023-03-29T23:02:02.169Z,14.0
2023-03-29T23:04:32.943Z,14.0
2023-03-29T23:07:03.558Z,14.0
2023-03-29T23:09:34.180Z,13.0
2023-03-29T23:14:44.722Z,13.0
2023-03-29T23:17:15.273Z,13.0
2023-03-29T23:19:45.879Z,13.0
2023-03-29T23:22:16.446Z,13.0
2023-03-29T23:24:56.983Z,13.0
2023-03-29T23:27:27.509Z,13.0
2023-03-29T23:29:58.077Z,13.0
2023-03-29T23:32:28.700Z,13.0
2023-03-29T23:34:59.340Z,12.0
2023-03-29T23:37:29.887Z,12.0
2023-03-29T23:40:10.435Z,12.0
2023-03-29T23:42:41.051Z,12.0
2023-03-29T23:45:11.592Z,12.0
2023-03-29T23:47:42.206Z,12.0
2023-03-29T23:50:12.841Z,12.0
2023-03-29T23:55:23.377Z,12.0
2023-03-29T23:57:53.950Z,12.0
